Time;durP1;ratioP1;P1;durP2;ratioP2;P2;SDS_P1;SDS_P2;PMS_P1;PMS_P2;Temp;Humidity;BMP_temperature;BMP_pressure;BME280_temperature;BME280_humidity;BME280_pressure;Samples;Min_cycle;Max_cycle;Signal;HPM_P1;HPM_P2
2024/03/02 00:02:22;;;;;;;44.80;22.02;;;;;;;6.49;100.00;99870.75;5081112;28;20428;-81
2024/03/02 00:04:55;;;;;;;45.93;21.27;;;;;;;6.46;100.00;99871.28;5079006;28;20416;-82
2024/03/02 00:07:28;;;;;;;46.63;21.92;;;;;;;6.54;100.00;99875.34;5058923;28;20427;-82
2024/03/02 00:09:56;;;;;;;43.72;21.48;;;;;;;6.46;100.00;99871.28;5064639;28;20475;-82
2024/03/02 00:12:31;;;;;;;45.97;21.23;;;;;;;6.47;100.00;99875.63;5064109;28;20418;-82
2024/03/02 00:15:07;;;;;;;43.78;20.80;;;;;;;6.45;100.00;99873.19;5059008;28;20431;-82
2024/03/02 00:17:40;;;;;;;43.92;21.15;;;;;;;6.42;100.00;99872.91;5082051;28;20492;-81
2024/03/02 00:20:19;;;;;;;48.03;22.00;;;;;;;6.41;100.00;99868.59;5068044;28;20437;-82
2024/03/02 00:22:52;;;;;;;42.03;20.85;;;;;;;6.43;100.00;99869.94;5061988;28;20426;-83
2024/03/02 00:25:25;;;;;;;44.20;21.02;;;;;;;6.42;100.00;99859.41;5080417;28;20406;-82
2024/03/02 00:28:01;;;;;;;44.15;21.00;;;;;;;6.44;100.00;99860.75;5061407;28;20511;-81
2024/03/02 00:30:58;;;;;;;46.70;22.27;;;;;;;6.39;100.00;99860.75;5078748;28;20421;-82
2024/03/02 00:33:33;;;;;;;47.37;21.70;;;;;;;6.36;100.00;99852.38;5078660;28;20439;-82
2024/03/02 00:36:03;;;;;;;44.40;21.05;;;;;;;6.33;100.00;99844.84;5072368;28;20417;-81
2024/03/02 00:38:45;;;;;;;43.10;21.27;;;;;;;6.30;100.00;99848.88;5056963;28;20443;-82
2024/03/02 00:41:23;;;;;;;48.83;21.60;;;;;;;6.28;100.00;99848.31;5052179;28;20416;-82
2024/03/02 00:44:00;;;;;;;42.92;21.00;;;;;;;6.29;100.00;99850.75;5082285;28;20433;-82
2024/03/02 00:46:30;;;;;;;45.90;21.55;;;;;;;6.27;100.00;99849.41;5062440;28;20422;-82
2024/03/02 00:49:00;;;;;;;45.63;21.73;;;;;;;6.25;100.00;99857.78;5060377;28;20430;-82
2024/03/02 00:51:35;;;;;;;46.83;22.02;;;;;;;6.25;100.00;99857.78;5061275;28;20410;-82
2024/03/02 00:54:11;;;;;;;46.77;21.53;;;;;;;6.28;100.00;99864.53;5082404;28;20982;-82
2024/03/02 00:56:44;;;;;;;43.45;22.10;;;;;;;6.22;100.00;99855.63;5077512;28;20803;-82
2024/03/02 00:59:18;;;;;;;45.17;22.35;;;;;;;6.20;100.00;99852.41;5080813;28;20407;-81
2024/03/02 01:01:46;;;;;;;45.15;21.70;;;;;;;6.18;100.00;99854.56;5064997;28;20676;-81
2024/03/02 01:04:15;;;;;;;46.80;22.07;;;;;;;6.21;100.00;99851.31;5080022;28;20825;-82
2024/03/02 01:06:48;;;;;;;47.40;22.23;;;;;;;6.15;100.00;99854.31;5078672;28;20430;-82
2024/03/02 01:09:17;;;;;;;45.67;22.60;;;;;;;6.11;100.00;99841.31;5061863;28;20427;-82
2024/03/02 01:11:50;;;;;;;44.88;21.10;;;;;;;6.12;100.00;99848.34;5076557;28;20914;-82
2024/03/02 01:14:25;;;;;;;45.80;21.83;;;;;;;6.13;100.00;99846.44;5059004;28;21080;-82
2024/03/02 01:16:59;;;;;;;43.72;22.00;;;;;;;6.07;100.00;99845.63;5081368;28;20431;-82
2024/03/02 01:19:32;;;;;;;44.05;21.90;;;;;;;6.12;100.00;99844.84;5073444;28;20421;-82
2024/03/02 01:22:06;;;;;;;49.27;22.03;;;;;;;6.06;100.00;99844.03;5061139;28;20411;-82
2024/03/02 01:24:34;;;;;;;44.50;22.08;;;;;;;6.04;100.00;99843.47;5059276;28;20426;-81
2024/03/02 01:27:02;;;;;;;45.70;22.17;;;;;;;6.03;100.00;99841.84;5066131;28;20431;-82
2024/03/02 01:29:32;;;;;;;48.10;22.58;;;;;;;6.02;100.00;99842.13;5081806;28;20425;-82
2024/03/02 01:32:05;;;;;;;47.50;23.50;;;;;;;6.04;100.00;99839.97;5079060;28;20425;-82
2024/03/02 01:34:39;;;;;;;48.90;22.65;;;;;;;5.99;100.00;99835.38;5078787;28;20430;-82
2024/03/02 01:37:12;;;;;;;46.78;22.30;;;;;;;5.97;100.00;99840.22;5060531;28;20415;-82
2024/03/02 01:39:40;;;;;;;44.50;21.92;;;;;;;5.98;100.00;99835.63;5081126;28;20395;-82
2024/03/02 01:42:14;;;;;;;47.40;22.05;;;;;;;5.94;100.00;99835.34;5077027;28;20494;-82
2024/03/02 01:44:48;;;;;;;46.17;22.30;;;;;;;5.94;100.00;99829.97;5062835;28;20410;-82
2024/03/02 01:47:21;;;;;;;46.20;21.58;;;;;;;5.96;100.00;99825.09;5078538;28;21045;-82
2024/03/02 01:49:50;;;;;;;46.58;22.63;;;;;;;5.94;100.00;99830.75;5063640;28;20898;-82
2024/03/02 01:52:23;;;;;;;44.88;21.23;;;;;;;5.95;100.00;99828.84;5077495;28;20416;-82
2024/03/02 01:54:51;;;;;;;47.28;23.08;;;;;;;5.92;100.00;99824.00;5075676;28;20413;-82
2024/03/02 01:57:20;;;;;;;47.13;22.60;;;;;;;5.88;100.00;99823.75;5078943;28;21130;-82
2024/03/02 01:59:50;;;;;;;48.13;22.73;;;;;;;5.88;100.00;99814.81;5078394;28;20396;-81
2024/03/02 02:02:18;;;;;;;44.17;22.02;;;;;;;5.83;100.00;99818.34;5054742;28;20442;-82
2024/03/02 02:04:52;;;;;;;48.65;22.77;;;;;;;5.83;100.00;99812.94;5059229;28;20420;-82
2024/03/02 02:07:20;;;;;;;52.92;23.00;;;;;;;5.82;100.00;99813.22;5080515;28;20419;-82
2024/03/02 02:09:49;;;;;;;48.70;22.92;;;;;;;5.81;100.00;99808.88;5084029;28;20409;-83
2024/03/02 02:12:22;;;;;;;43.80;21.90;;;;;;;5.81;100.00;99814.28;5079346;28;20904;-82
2024/03/02 02:14:57;;;;;;;46.83;23.35;;;;;;;5.75;100.00;99808.06;5082715;28;20415;-82
2024/03/02 02:17:30;;;;;;;51.93;22.97;;;;;;;5.77;100.00;99808.59;5061820;28;20540;-82
2024/03/02 02:20:05;;;;;;;49.03;23.05;;;;;;;5.76;100.00;99810.50;5078974;28;20429;-82
2024/03/02 02:22:39;;;;;;;46.47;23.13;;;;;;;5.72;100.00;99819.41;5059457;28;20427;-82
2024/03/02 02:25:08;;;;;;;44.97;22.40;;;;;;;5.67;100.00;99817.50;5067185;28;20897;-83
2024/03/02 02:27:41;;;;;;;50.40;23.10;;;;;;;5.72;100.00;99809.41;5059178;28;20419;-81
2024/03/02 02:30:14;;;;;;;48.47;22.17;;;;;;;5.76;100.00;99809.69;5058337;28;20433;-81
2024/03/02 02:32:43;;;;;;;45.63;21.92;;;;;;;5.65;100.00;99811.56;5059583;28;20423;-82
2024/03/02 02:35:12;;;;;;;46.67;22.83;;;;;;;5.67;100.00;99803.19;5076170;28;20423;-84
2024/03/02 02:37:48;;;;;;;47.22;22.85;;;;;;;5.76;100.00;99802.41;5061835;28;20426;-81
2024/03/02 02:40:18;;;;;;;45.88;23.25;;;;;;;5.72;100.00;99809.41;5084610;28;21059;-81
2024/03/02 02:42:52;;;;;;;46.72;22.17;;;;;;;5.71;100.00;99809.69;5064346;28;20429;-82
2024/03/02 02:45:25;;;;;;;47.13;22.90;;;;;;;5.75;100.00;99816.16;5083023;28;20434;-81
2024/03/02 02:48:01;;;;;;;46.15;23.27;;;;;;;5.70;100.00;99819.66;5079554;28;20856;-82
2024/03/02 02:50:36;;;;;;;46.97;22.70;;;;;;;5.73;100.00;99821.84;5069003;28;20422;-82
2024/03/02 02:53:09;;;;;;;48.03;23.40;;;;;;;5.70;100.00;99829.66;5069779;28;20976;-82
2024/03/02 02:55:43;;;;;;;47.03;22.67;;;;;;;5.73;100.00;99824.53;5085407;28;20743;-81
2024/03/02 02:58:11;;;;;;;47.90;22.67;;;;;;;5.71;100.00;99817.78;5063121;28;20430;-82
2024/03/02 03:00:44;;;;;;;47.65;23.25;;;;;;;5.72;100.00;99824.81;5064597;28;20423;-82
2024/03/02 03:03:17;;;;;;;46.67;23.15;;;;;;;5.73;100.00;99823.72;5084120;28;20418;-81
2024/03/02 03:05:51;;;;;;;48.03;22.30;;;;;;;5.72;100.00;99820.22;5061234;28;20472;-82
2024/03/02 03:08:26;;;;;;;49.70;23.58;;;;;;;5.66;100.00;99815.88;5067252;28;21066;-83
2024/03/02 03:10:59;;;;;;;48.30;23.10;;;;;;;5.70;100.00;99808.06;5071648;28;20418;-81
2024/03/02 03:13:32;;;;;;;51.97;23.80;;;;;;;5.72;100.00;99814.81;5067920;28;20428;-82
2024/03/02 03:16:01;;;;;;;47.22;23.25;;;;;;;5.67;100.00;99809.41;5083070;28;20418;-81
2024/03/02 03:18:29;;;;;;;51.55;23.70;;;;;;;5.65;100.00;99816.97;5062949;28;20813;-81
2024/03/02 03:21:03;;;;;;;49.40;23.07;;;;;;;5.60;100.00;99814.25;5069195;28;20520;-82
2024/03/02 03:23:32;;;;;;;50.65;23.55;;;;;;;5.60;100.00;99808.84;5061864;28;21300;-82
2024/03/02 03:26:01;;;;;;;50.08;23.40;;;;;;;5.58;100.00;99816.44;5077316;28;20428;-82
2024/03/02 03:28:29;;;;;;;46.15;23.45;;;;;;;5.55;100.00;99808.84;5068526;28;20436;-81
2024/03/02 03:31:03;;;;;;;53.90;25.33;;;;;;;5.53;100.00;99809.13;5081202;28;20446;-82
2024/03/02 03:33:31;;;;;;;49.22;24.00;;;;;;;5.52;100.00;99807.50;5082732;28;20957;-82
2024/03/02 03:36:05;;;;;;;53.35;25.30;;;;;;;5.53;100.00;99805.63;5069887;28;20434;-81
2024/03/02 03:38:34;;;;;;;48.47;23.35;;;;;;;5.52;100.00;99802.09;5064500;28;20911;-82
2024/03/02 03:41:03;;;;;;;51.45;23.98;;;;;;;5.50;100.00;99798.88;5078204;28;20434;-83
2024/03/02 03:43:37;;;;;;;50.03;24.77;;;;;;;5.54;100.00;99802.66;5082222;28;20430;-83
2024/03/02 03:46:05;;;;;;;52.13;23.42;;;;;;;5.52;100.00;99804.78;5069566;28;20422;-82
2024/03/02 03:48:33;;;;;;;57.05;24.88;;;;;;;5.51;100.00;99796.97;5062598;28;20811;-82
2024/03/02 03:51:07;;;;;;;49.85;24.13;;;;;;;5.48;100.00;99803.69;5074066;28;21022;-81
2024/03/02 03:53:36;;;;;;;52.20;25.05;;;;;;;5.52;100.00;99801.28;5078394;28;20414;-81
2024/03/02 03:56:09;;;;;;;51.67;24.50;;;;;;;5.54;100.00;99799.94;5062782;28;20753;-82
2024/03/02 03:58:42;;;;;;;52.92;24.05;;;;;;;5.53;100.00;99800.22;5060584;28;20421;-83
2024/03/02 04:01:16;;;;;;;51.60;24.90;;;;;;;5.51;100.00;99796.97;5079721;28;20427;-82
2024/03/02 04:03:49;;;;;;;50.47;24.27;;;;;;;5.51;100.00;99805.06;5076897;28;20408;-81
2024/03/02 04:06:22;;;;;;;49.80;24.70;;;;;;;5.50;100.00;99806.97;5064332;28;20440;-82
2024/03/02 04:08:52;;;;;;;52.85;24.58;;;;;;;5.47;100.00;99801.28;5080249;28;21065;-82
2024/03/02 04:11:20;;;;;;;50.72;24.30;;;;;;;5.52;100.00;99801.28;5081995;28;20869;-81
2024/03/02 04:13:48;;;;;;;51.88;24.77;;;;;;;5.49;100.00;99799.94;5066083;28;20922;-82
2024/03/02 04:16:21;;;;;;;49.53;24.08;;;;;;;5.50;100.00;99804.25;5060429;28;20423;-81
2024/03/02 04:18:56;;;;;;;47.40;23.92;;;;;;;5.49;100.00;99799.13;5060378;28;20450;-81
2024/03/02 04:21:29;;;;;;;52.83;24.98;;;;;;;5.48;100.00;99798.31;5066034;28;20477;-82
2024/03/02 04:24:04;;;;;;;51.13;26.15;;;;;;;5.47;100.00;99798.56;5065985;28;20431;-81
2024/03/02 04:26:33;;;;;;;56.22;26.23;;;;;;;5.47;100.00;99799.41;5084692;28;20411;-81
2024/03/02 04:29:06;;;;;;;56.30;25.83;;;;;;;5.47;100.00;99802.09;5065040;28;20452;-81
2024/03/02 04:31:39;;;;;;;50.28;25.05;;;;;;;5.45;100.00;99812.34;5075875;28;20427;-82
2024/03/02 04:34:12;;;;;;;50.17;24.50;;;;;;;5.45;100.00;99807.78;5068094;28;20447;-82
2024/03/02 04:36:41;;;;;;;51.97;24.25;;;;;;;5.47;100.00;99807.50;5083165;28;20481;-80
2024/03/02 04:39:15;;;;;;;48.38;23.60;;;;;;;5.46;100.00;99800.47;5082012;28;20434;-81
2024/03/02 04:41:48;;;;;;;49.20;23.75;;;;;;;5.47;100.00;99803.97;5084222;28;20436;-82
2024/03/02 04:44:21;;;;;;;50.72;23.17;;;;;;;5.43;100.00;99809.91;5085333;28;20436;-82
2024/03/02 04:46:50;;;;;;;52.80;23.15;;;;;;;5.44;100.00;99808.00;5071454;28;20419;-81
2024/03/02 04:49:23;;;;;;;49.67;24.00;;;;;;;5.43;100.00;99809.91;5081937;28;20448;-81
2024/03/02 04:51:57;;;;;;;50.63;23.92;;;;;;;5.43;100.00;99811.81;5082290;28;20402;-81
2024/03/02 04:54:31;;;;;;;52.33;24.10;;;;;;;5.37;100.00;99816.38;5085178;28;20444;-81
2024/03/02 04:56:59;;;;;;;52.50;24.42;;;;;;;5.38;100.00;99814.50;5077961;28;20406;-82
2024/03/02 04:59:32;;;;;;;51.57;24.40;;;;;;;5.35;100.00;99813.13;5061066;28;20904;-81
2024/03/02 05:02:06;;;;;;;52.30;25.63;;;;;;;5.33;100.00;99809.06;5080549;28;20418;-81
2024/03/02 05:04:39;;;;;;;56.95;24.80;;;;;;;5.33;100.00;99804.50;5080827;28;20415;-80
2024/03/02 05:07:13;;;;;;;54.05;24.67;;;;;;;5.28;100.00;99807.97;5079601;28;20430;-81
2024/03/02 05:09:48;;;;;;;53.13;25.25;;;;;;;5.30;100.00;99804.22;5057792;28;20423;-81
2024/03/02 05:12:40;;;;;;;55.05;25.23;;;;;;;5.27;100.00;99809.09;5062911;28;20417;-81
2024/03/02 05:15:09;;;;;;;55.23;25.30;;;;;;;5.26;100.00;99810.16;5082310;28;21437;-81
2024/03/02 05:17:43;;;;;;;54.95;25.98;;;;;;;5.29;100.00;99808.81;5066067;28;20415;-81
2024/03/02 05:20:17;;;;;;;55.35;26.00;;;;;;;5.29;100.00;99800.72;5065493;28;20440;-81
2024/03/02 05:22:50;;;;;;;52.40;24.90;;;;;;;5.28;100.00;99791.78;5056933;28;20425;-81
2024/03/02 05:25:19;;;;;;;54.92;25.20;;;;;;;5.27;100.00;99786.66;5079870;28;20446;-80
2024/03/02 05:27:53;;;;;;;55.78;26.52;;;;;;;5.23;100.00;99782.88;5078696;28;20422;-81
2024/03/02 05:30:27;;;;;;;57.83;26.17;;;;;;;5.24;100.00;99781.81;5060317;28;20418;-81
2024/03/02 05:33:00;;;;;;;55.00;24.63;;;;;;;5.25;100.00;99784.25;5059415;28;20890;-81
2024/03/02 05:35:28;;;;;;;58.67;25.83;;;;;;;5.26;100.00;99787.75;5060401;28;20430;-81
2024/03/02 05:37:56;;;;;;;62.13;25.85;;;;;;;5.27;100.00;99792.91;5059654;28;20782;-81
2024/03/02 05:40:31;;;;;;;55.65;25.02;;;;;;;5.33;100.00;99796.41;5076440;28;20407;-81
2024/03/02 05:42:59;;;;;;;55.30;26.13;;;;;;;5.36;100.00;99797.75;5080750;28;20421;-81
2024/03/02 05:45:27;;;;;;;56.73;25.87;;;;;;;5.38;100.00;99798.31;5075609;28;20425;-81
2024/03/02 05:47:55;;;;;;;57.75;25.98;;;;;;;5.37;100.00;99802.06;5079034;28;20456;-82
2024/03/02 05:50:23;;;;;;;52.20;25.65;;;;;;;5.35;100.00;99796.94;5061547;28;20418;-80
2024/03/02 05:52:57;;;;;;;58.67;26.40;;;;;;;5.39;100.00;99798.03;5079649;28;20426;-80
2024/03/02 05:55:31;;;;;;;54.17;24.63;;;;;;;5.36;100.00;99798.56;5067246;28;20500;-82
2024/03/02 05:58:15;;;;;;;53.72;25.60;;;;;;;5.35;100.00;99813.13;5079423;28;20936;-82
2024/03/02 06:00:43;;;;;;;55.60;25.10;;;;;;;5.47;100.00;99821.00;5061639;28;20966;-81
2024/03/02 06:03:16;;;;;;;54.47;26.00;;;;;;;5.43;100.00;99823.41;5062484;28;20427;-80
2024/03/02 06:05:50;;;;;;;61.92;27.52;;;;;;;5.31;100.00;99817.44;5078701;28;20916;-80
2024/03/02 06:08:19;;;;;;;57.60;26.13;;;;;;;5.36;100.00;99812.06;5060094;28;20452;-81
2024/03/02 06:10:54;;;;;;;55.03;25.83;;;;;;;5.35;100.00;99812.34;5059236;28;20460;-81
2024/03/02 06:13:27;;;;;;;55.50;25.85;;;;;;;5.35;100.00;99807.72;5080859;28;20425;-81
2024/03/02 06:15:55;;;;;;;55.40;25.73;;;;;;;5.35;100.00;99801.53;5083288;28;20396;-81
2024/03/02 06:18:23;;;;;;;59.67;26.50;;;;;;;5.34;100.00;99808.00;5083284;28;20425;-81
2024/03/02 06:20:56;;;;;;;57.97;26.50;;;;;;;5.32;100.00;99808.28;5061686;28;21202;-80
2024/03/02 06:23:30;;;;;;;57.47;27.10;;;;;;;5.35;100.00;99809.63;5081024;28;20427;-81
2024/03/02 06:26:05;;;;;;;57.70;26.45;;;;;;;5.42;100.00;99823.66;5083498;28;20416;-81
2024/03/02 06:28:33;;;;;;;51.63;25.15;;;;;;;5.36;100.00;99825.56;5063991;28;20425;-81
2024/03/02 06:31:02;;;;;;;58.65;26.55;;;;;;;5.40;100.00;99823.13;5083149;28;20410;-82
2024/03/02 06:33:30;;;;;;;53.20;25.38;;;;;;;5.43;100.00;99818.00;5063234;28;20452;-81
2024/03/02 06:35:59;;;;;;;55.83;25.65;;;;;;;5.48;100.00;99825.28;5063484;28;20768;-81
2024/03/02 06:38:27;;;;;;;51.55;25.48;;;;;;;5.46;100.00;99822.06;5062387;28;20792;-81
2024/03/02 06:41:00;;;;;;;54.87;25.43;;;;;;;5.52;100.00;99836.38;5061246;28;20431;-80
2024/03/02 06:43:35;;;;;;;52.75;24.40;;;;;;;5.66;100.00;99832.06;5060326;28;20435;-81
2024/03/02 06:46:04;;;;;;;53.03;24.47;;;;;;;5.65;100.00;99825.06;5065999;28;20746;-81
2024/03/02 06:48:33;;;;;;;54.15;25.10;;;;;;;5.61;100.00;99827.47;5078822;28;20723;-81
2024/03/02 06:51:01;;;;;;;57.73;25.90;;;;;;;5.60;100.00;99822.34;5078060;28;20402;-81
2024/03/02 06:53:34;;;;;;;54.47;24.98;;;;;;;5.59;100.00;99813.47;5080920;28;20422;-81
2024/03/02 06:56:02;;;;;;;54.37;24.50;;;;;;;5.49;100.00;99818.81;5080241;28;21267;-81
2024/03/02 06:58:37;;;;;;;56.65;26.55;;;;;;;5.47;100.00;99812.91;5078414;28;20430;-81
2024/03/02 07:01:10;;;;;;;60.25;28.52;;;;;;;5.49;100.00;99818.81;5062548;28;20425;-81
2024/03/02 07:03:43;;;;;;;55.72;27.50;;;;;;;5.59;100.00;99829.66;5060158;28;20427;-82
2024/03/02 07:06:17;;;;;;;56.63;25.63;;;;;;;5.66;100.00;99834.75;5071879;28;20440;-81
2024/03/02 07:08:45;;;;;;;55.40;25.63;;;;;;;5.71;100.00;99831.28;5058007;28;20425;-81
2024/03/02 07:11:18;;;;;;;51.47;24.50;;;;;;;5.76;100.00;99826.69;5062529;28;20447;-81
2024/03/02 07:13:47;;;;;;;54.10;25.27;;;;;;;5.85;100.00;99823.47;5082251;28;20406;-81
2024/03/02 07:16:27;;;;;;;51.27;24.53;;;;;;;5.90;100.00;99828.88;5076687;28;20496;-81
2024/03/02 07:18:56;;;;;;;55.55;25.30;;;;;;;5.89;100.00;99828.03;5079629;28;20423;-81
2024/03/02 07:21:30;;;;;;;51.22;24.83;;;;;;;5.93;100.00;99841.84;5063340;28;20427;-81
2024/03/02 07:23:59;;;;;;;51.38;24.67;;;;;;;5.94;100.00;99844.25;5084154;28;20413;-81
2024/03/02 07:26:32;;;;;;;50.30;24.88;;;;;;;5.99;100.00;99845.38;5080661;28;20430;-80
2024/03/02 07:29:07;;;;;;;48.67;23.08;;;;;;;6.04;100.00;99846.19;5066823;28;21244;-82
2024/03/02 07:31:40;;;;;;;49.40;22.83;;;;;;;6.08;100.00;99859.97;5061591;28;20850;-81
2024/03/02 07:34:08;;;;;;;49.63;23.63;;;;;;;6.09;100.00;99859.69;5071689;28;20414;-81
2024/03/02 07:36:41;;;;;;;50.28;24.48;;;;;;;6.09;100.00;99853.47;5078880;28;20428;-80
2024/03/02 07:39:15;;;;;;;49.30;23.98;;;;;;;6.14;100.00;99853.47;5065705;28;20423;-81
2024/03/02 07:41:43;;;;;;;48.45;23.45;;;;;;;6.15;100.00;99862.41;5078361;28;20422;-80
2024/03/02 07:44:18;;;;;;;51.63;24.60;;;;;;;6.18;100.00;99856.47;5076673;28;20486;-80
2024/03/02 07:46:52;;;;;;;50.87;24.37;;;;;;;6.23;100.00;99864.56;5078111;28;20481;-80
2024/03/02 07:49:25;;;;;;;48.47;23.92;;;;;;;6.27;100.00;99871.03;5077949;28;20420;-81
2024/03/02 07:51:53;;;;;;;46.93;23.67;;;;;;;6.32;100.00;99868.31;5058018;28;20411;-80
2024/03/02 07:54:26;;;;;;;52.47;25.13;;;;;;;6.39;100.00;99862.66;5056113;28;20420;-81
2024/03/02 07:57:00;;;;;;;54.15;26.08;;;;;;;6.41;100.00;99865.91;5078542;28;20453;-81
2024/03/02 07:59:29;;;;;;;54.92;26.17;;;;;;;6.46;100.00;99861.28;5074149;28;20455;-81
2024/03/02 08:02:03;;;;;;;52.45;25.70;;;;;;;6.49;100.00;99869.94;5064677;28;20429;-80
2024/03/02 08:04:37;;;;;;;58.40;27.45;;;;;;;6.54;100.00;99872.63;5080734;28;20425;-81
2024/03/02 08:07:05;;;;;;;55.80;28.10;;;;;;;6.63;100.00;99871.00;5057083;28;20433;-81
2024/03/02 08:09:33;;;;;;;53.55;26.77;;;;;;;6.68;100.00;99868.28;5064290;28;20428;-81
2024/03/02 08:12:07;;;;;;;48.28;24.50;;;;;;;6.69;100.00;99875.31;5058673;28;20890;-81
2024/03/02 08:14:42;;;;;;;51.80;25.67;;;;;;;6.71;100.00;99873.16;5061834;28;20440;-81
2024/03/02 08:17:15;;;;;;;48.95;24.55;;;;;;;6.76;100.00;99864.22;5076257;28;20430;-81
2024/03/02 08:19:49;;;;;;;48.00;24.35;;;;;;;6.89;100.00;99869.06;5075226;28;20420;-80
2024/03/02 08:22:17;;;;;;;48.03;25.00;;;;;;;6.81;100.00;99875.81;5063750;28;20514;-80
2024/03/02 08:24:46;;;;;;;51.70;23.45;;;;;;;6.95;100.00;99888.78;5075752;28;20901;-81
2024/03/02 08:27:14;;;;;;;47.22;24.05;;;;;;;7.13;100.00;99887.38;5059046;28;20426;-85
2024/03/02 08:29:44;;;;;;;48.53;23.00;;;;;;;7.22;100.00;99885.72;5058411;28;20476;-80
2024/03/02 08:32:12;;;;;;;45.08;23.52;;;;;;;7.36;100.00;99898.63;5076338;28;20411;-81
2024/03/02 08:34:40;;;;;;;47.15;22.65;;;;;;;7.54;100.00;99892.59;5058214;28;20433;-81
2024/03/02 08:37:13;;;;;;;48.08;23.15;;;;;;;7.45;100.00;99896.97;5053870;28;20547;-84
2024/03/02 08:39:47;;;;;;;45.22;22.83;;;;;;;7.49;100.00;99911.56;5083690;28;20414;-83
2024/03/02 08:42:20;;;;;;;39.70;22.20;;;;;;;7.49;100.00;99906.97;5057083;28;20420;-86
2024/03/02 08:44:54;;;;;;;44.33;22.73;;;;;;;7.50;100.00;99905.06;5053846;28;20427;-85
2024/03/02 08:47:28;;;;;;;42.40;22.42;;;;;;;7.62;100.00;99905.56;5073843;28;20430;-81
2024/03/02 08:50:01;;;;;;;47.00;23.23;;;;;;;7.60;100.00;99910.44;5077250;28;20419;-82
2024/03/02 08:52:34;;;;;;;47.22;23.13;;;;;;;7.75;100.00;99914.16;5076701;28;20415;-81
2024/03/02 08:55:08;;;;;;;43.28;22.05;;;;;;;7.68;100.00;99910.94;5078825;28;20438;-84
2024/03/02 08:57:42;;;;;;;41.50;22.20;;;;;;;7.71;100.00;99915.81;5060971;28;20422;-83
2024/03/02 09:00:18;;;;;;;46.47;21.73;;;;;;;7.77;100.00;99920.09;5077675;28;20422;-83
2024/03/02 09:02:47;;;;;;;43.10;22.70;;;;;;;7.75;100.00;99914.97;5059600;28;20854;-82
2024/03/02 09:05:16;;;;;;;36.57;19.43;;;;;;;7.60;100.00;99921.25;5053675;28;20430;-83
2024/03/02 09:07:44;;;;;;;40.47;20.17;;;;;;;7.70;100.00;99914.19;5053417;28;20541;-83
2024/03/02 09:10:17;;;;;;;41.20;20.40;;;;;;;7.70;100.00;99916.88;5056350;28;20428;-84
2024/03/02 09:12:46;;;;;;;42.47;20.63;;;;;;;7.72;100.00;99918.22;5066802;28;20421;-84
2024/03/02 09:15:20;;;;;;;36.17;19.35;;;;;;;7.77;100.00;99915.47;5070671;28;20485;-83
2024/03/02 09:17:54;;;;;;;36.63;19.75;;;;;;;7.82;100.00;99918.16;5056465;28;20770;-81
2024/03/02 09:20:27;;;;;;;38.28;19.52;;;;;;;7.92;100.00;99920.00;5078606;28;20437;-82
2024/03/02 09:23:00;;;;;;;38.85;19.75;;;;;;;7.87;100.00;99913.81;5057023;28;20782;-83
2024/03/02 09:25:34;;;;;;;37.35;19.25;;;;;;;8.02;100.00;99915.59;5072788;28;20427;-83
2024/03/02 09:28:07;;;;;;;35.17;18.90;;;;;;;8.01;100.00;99917.53;5071457;28;20430;-85
2024/03/02 09:30:42;;;;;;;34.92;18.35;;;;;;;8.13;100.00;99914.44;5074750;28;20439;-85
2024/03/02 09:33:15;;;;;;;29.80;16.67;;;;;;;8.20;100.00;99919.53;5057825;28;20422;-84
2024/03/02 09:35:49;;;;;;;30.95;16.65;;;;;;;8.29;100.00;99909.72;5056530;28;20434;-84
2024/03/02 09:38:17;;;;;;;32.13;16.75;;;;;;;8.40;100.00;99910.44;5059982;28;20418;-81
2024/03/02 09:40:46;;;;;;;31.48;15.98;;;;;;;8.48;100.00;99916.09;5053091;28;20427;-87
2024/03/02 09:43:20;;;;;;;30.25;15.80;;;;;;;8.47;100.00;99924.50;5070785;28;20434;-80
2024/03/02 09:45:54;;;;;;;30.35;15.57;;;;;;;8.54;100.00;99922.28;5059035;28;20429;-82
2024/03/02 09:48:27;;;;;;;26.58;14.93;;;;;;;8.72;100.00;99923.47;5078559;28;20437;-80
2024/03/02 09:51:03;;;;;;;28.40;15.38;;;;;;;8.82;100.00;99920.69;5080658;28;20432;-82
2024/03/02 09:53:36;;;;;;;26.47;14.47;;;;;;;8.91;100.00;99929.00;5073929;28;20513;-82
2024/03/02 09:56:10;;;;;;;25.75;13.82;;;;;;;9.08;100.00;99938.59;5081160;28;20423;-83
2024/03/02 09:58:43;;;;;;;25.93;13.97;;;;;;;9.16;100.00;99932.53;5078183;28;20411;-82
2024/03/02 10:01:18;;;;;;;25.10;13.40;;;;;;;9.27;100.00;99925.09;5022746;28;20435;-80
2024/03/02 10:03:52;;;;;;;24.15;13.80;;;;;;;9.36;100.00;99928.75;5075319;28;20432;-83
2024/03/02 10:06:27;;;;;;;24.70;13.27;;;;;;;9.43;100.00;99931.13;5079139;28;21143;-82
2024/03/02 10:08:56;;;;;;;24.35;13.65;;;;;;;9.51;100.00;99927.75;5081595;28;20419;-83
2024/03/02 10:11:31;;;;;;;23.35;13.63;;;;;;;9.61;100.00;99934.97;5082819;28;20421;-82
2024/03/02 10:14:08;;;;;;;23.97;13.17;;;;;;;9.73;100.00;99937.28;5075120;28;20410;-83
2024/03/02 10:16:44;;;;;;;24.27;12.40;;;;;;;9.85;100.00;99929.50;5066136;28;20446;-83
2024/03/02 10:19:20;;;;;;;24.48;12.50;;;;;;;9.83;100.00;99932.50;5062487;28;20923;-84
2024/03/02 10:21:49;;;;;;;22.40;12.63;;;;;;;9.79;100.00;99923.31;5081310;28;20519;-83
2024/03/02 10:24:23;;;;;;;23.60;12.13;;;;;;;9.81;100.00;99931.97;5069943;28;20421;-83
2024/03/02 10:26:56;;;;;;;23.77;13.07;;;;;;;9.76;100.00;99926.59;5084296;28;20435;-83
2024/03/02 10:29:30;;;;;;;22.58;12.75;;;;;;;9.96;100.00;99927.44;5083459;28;20450;-82
2024/03/02 10:32:06;;;;;;;24.05;12.45;;;;;;;9.86;100.00;99921.06;5063006;28;20458;-83
2024/03/02 10:34:41;;;;;;;20.73;12.00;;;;;;;9.94;100.00;99919.56;5067615;28;20425;-83
2024/03/02 10:37:17;;;;;;;22.83;11.70;;;;;;;10.05;100.00;99922.94;5062816;28;20419;-83
2024/03/02 10:39:47;;;;;;;23.80;12.32;;;;;;;10.08;100.00;99932.41;5074481;28;20456;-83
2024/03/02 10:42:20;;;;;;;22.23;12.10;;;;;;;10.17;100.00;99930.66;5085009;28;20420;-83
2024/03/02 10:44:54;;;;;;;21.83;12.23;;;;;;;10.21;100.00;99931.69;5084571;28;20428;-82
2024/03/02 10:47:32;;;;;;;22.70;12.35;;;;;;;10.04;100.00;99930.31;5063850;28;20420;-83
2024/03/02 10:50:08;;;;;;;21.88;11.73;;;;;;;10.17;100.00;99925.22;5064051;28;20438;-82
2024/03/02 10:52:42;;;;;;;22.63;12.03;;;;;;;10.08;100.00;99927.81;5068470;28;20476;-83
2024/03/02 10:55:15;;;;;;;22.38;11.90;;;;;;;10.08;100.00;99919.66;5062869;28;20426;-83
2024/03/02 10:57:51;;;;;;;21.65;11.63;;;;;;;10.28;100.00;99921.22;5080742;28;20411;-83
2024/03/02 11:00:29;;;;;;;21.40;11.63;;;;;;;10.40;100.00;99928.97;5064176;28;20407;-83
2024/03/02 11:03:08;;;;;;;22.63;12.05;;;;;;;10.43;100.00;99927.56;5064521;28;20416;-81
2024/03/02 11:05:45;;;;;;;22.90;11.88;;;;;;;10.45;100.00;99931.59;5068817;28;20426;-83
2024/03/02 11:08:15;;;;;;;20.65;11.80;;;;;;;10.45;100.00;99922.63;5078995;28;20418;-83
2024/03/02 11:10:50;;;;;;;21.52;11.50;;;;;;;10.50;100.00;99926.06;5081146;28;20422;-83
2024/03/02 11:13:24;;;;;;;22.88;11.48;;;;;;;10.51;100.00;99926.91;5061047;28;20437;-83
2024/03/02 11:16:04;;;;;;;21.27;11.70;;;;;;;10.64;100.00;99926.09;5079226;28;20414;-81
2024/03/02 11:18:40;;;;;;;21.85;11.98;;;;;;;10.69;100.00;99933.41;5065091;28;20446;-83
2024/03/02 11:21:14;;;;;;;19.52;11.05;;;;;;;10.61;100.00;99931.34;5081435;28;20430;-82
2024/03/02 11:23:47;;;;;;;20.40;11.57;;;;;;;10.58;100.00;99926.50;5079394;28;20797;-83
2024/03/02 11:26:23;;;;;;;22.00;11.53;;;;;;;10.66;100.00;99917.66;5059427;28;20527;-83
2024/03/02 11:28:51;;;;;;;22.73;10.93;;;;;;;10.63;100.00;99920.97;5059836;28;20898;-83
2024/03/02 11:31:19;;;;;;;19.40;10.47;;;;;;;10.63;100.00;99921.75;5078299;28;20435;-84
2024/03/02 11:33:54;;;;;;;18.20;10.35;;;;;;;10.68;100.00;99915.44;5058322;28;20773;-84
2024/03/02 11:36:23;;;;;;;18.55;10.18;;;;;;;10.77;100.00;99913.66;5064831;28;20433;-84
2024/03/02 11:38:53;;;;;;;18.98;10.25;;;;;;;10.87;100.00;99921.63;5073247;28;20917;-84
2024/03/02 11:41:21;;;;;;;18.92;10.65;;;;;;;11.10;100.00;99926.38;5058378;28;20442;-84